sensor_id;sensor_type;location;lat;lon;timestamp;pressure;altitude;pressure_sealevel;temperature;humidity
59493;BME280;45497;43.996;22.876;2023-04-01T00:00:23;100069.25;;;14.94;43.49
59493;BME280;45497;43.996;22.876;2023-04-01T00:02:49;100064.50;;;15.03;43.04
59493;BME280;45497;43.996;22.876;2023-04-01T00:05:15;100064.88;;;15.06;43.11
59493;BME280;45497;43.996;22.876;2023-04-01T00:07:42;100071.47;;;15.04;43.22
59493;BME280;45497;43.996;22.876;2023-04-01T00:10:10;100065.97;;;14.99;43.61
59493;BME280;45497;43.996;22.876;2023-04-01T00:12:36;100064.38;;;14.91;43.63
59493;BME280;45497;43.996;22.876;2023-04-01T00:15:03;100065.19;;;14.91;44.13
59493;BME280;45497;43.996;22.876;2023-04-01T00:17:29;100049.28;;;14.71;44.87
59493;BME280;45497;43.996;22.876;2023-04-01T00:19:56;100043.78;;;14.60;45.87
59493;BME280;45497;43.996;22.876;2023-04-01T00:22:23;100041.50;;;14.57;46.62
59493;BME280;45497;43.996;22.876;2023-04-01T00:24:48;100040.97;;;14.48;47.26
59493;BME280;45497;43.996;22.876;2023-04-01T00:27:15;100044.03;;;14.45;47.49
59493;BME280;45497;43.996;22.876;2023-04-01T00:29:44;100040.91;;;14.54;47.44
59493;BME280;45497;43.996;22.876;2023-04-01T00:32:11;100031.91;;;14.56;47.29
59493;BME280;45497;43.996;22.876;2023-04-01T00:34:37;100028.22;;;14.50;47.38
59493;BME280;45497;43.996;22.876;2023-04-01T00:37:03;100028.44;;;14.48;47.50
59493;BME280;45497;43.996;22.876;2023-04-01T00:39:30;100024.09;;;14.54;47.69
59493;BME280;45497;43.996;22.876;2023-04-01T00:41:56;100015.28;;;14.53;47.36
59493;BME280;45497;43.996;22.876;2023-04-01T00:44:23;100017.94;;;14.60;47.41
59493;BME280;45497;43.996;22.876;2023-04-01T00:46:50;100022.81;;;14.70;46.93
59493;BME280;45497;43.996;22.876;2023-04-01T00:49:19;100022.41;;;14.73;46.97
59493;BME280;45497;43.996;22.876;2023-04-01T00:51:47;100021.84;;;14.58;47.34
59493;BME280;45497;43.996;22.876;2023-04-01T00:54:16;100027.66;;;14.41;47.79
59493;BME280;45497;43.996;22.876;2023-04-01T00:56:48;100025.19;;;14.40;47.97
59493;BME280;45497;43.996;22.876;2023-04-01T00:59:21;100020.47;;;14.42;47.68
59493;BME280;45497;43.996;22.876;2023-04-01T01:01:48;100013.69;;;14.46;47.48
59493;BME280;45497;43.996;22.876;2023-04-01T01:04:27;100009.94;;;14.60;46.88
59493;BME280;45497;43.996;22.876;2023-04-01T01:12:24;99997.47;;;14.86;46.43
59493;BME280;45497;43.996;22.876;2023-04-01T01:15:08;99994.44;;;14.82;46.46
59493;BME280;45497;43.996;22.876;2023-04-01T01:31:50;99980.22;;;14.88;47.02
59493;BME280;45497;43.996;22.876;2023-04-01T01:36:58;99967.16;;;14.80;47.42
59493;BME280;45497;43.996;22.876;2023-04-01T01:39:27;99963.25;;;14.76;47.69
59493;BME280;45497;43.996;22.876;2023-04-01T01:41:57;99968.88;;;14.68;47.76
59493;BME280;45497;43.996;22.876;2023-04-01T01:44:25;99958.63;;;14.65;47.66
59493;BME280;45497;43.996;22.876;2023-04-01T01:46:53;99953.72;;;14.62;47.69
59493;BME280;45497;43.996;22.876;2023-04-01T01:49:19;99950.44;;;14.60;47.42
59493;BME280;45497;43.996;22.876;2023-04-01T01:51:45;99954.94;;;14.66;47.45
59493;BME280;45497;43.996;22.876;2023-04-01T01:54:15;99952.78;;;14.75;46.85
59493;BME280;45497;43.996;22.876;2023-04-01T01:56:42;99949.84;;;14.89;46.57
59493;BME280;45497;43.996;22.876;2023-04-01T01:59:11;99947.84;;;14.78;46.82
59493;BME280;45497;43.996;22.876;2023-04-01T02:01:40;99949.66;;;14.84;46.65
59493;BME280;45497;43.996;22.876;2023-04-01T02:04:08;99946.22;;;14.77;46.26
59493;BME280;45497;43.996;22.876;2023-04-01T02:06:37;99948.69;;;14.79;46.35
59493;BME280;45497;43.996;22.876;2023-04-01T02:09:06;99934.56;;;14.71;46.36
59493;BME280;45497;43.996;22.876;2023-04-01T02:11:51;99946.09;;;14.65;46.93
59493;BME280;45497;43.996;22.876;2023-04-01T02:14:22;99951.28;;;14.53;47.33
59493;BME280;45497;43.996;22.876;2023-04-01T02:16:53;99957.84;;;14.51;47.64
59493;BME280;45497;43.996;22.876;2023-04-01T02:19:24;99948.06;;;14.45;47.51
59493;BME280;45497;43.996;22.876;2023-04-01T02:21:55;99958.13;;;14.36;48.24
59493;BME280;45497;43.996;22.876;2023-04-01T02:24:23;99961.63;;;14.37;48.20
59493;BME280;45497;43.996;22.876;2023-04-01T02:26:51;99967.09;;;14.48;48.12
59493;BME280;45497;43.996;22.876;2023-04-01T02:29:19;99962.56;;;14.49;48.33
59493;BME280;45497;43.996;22.876;2023-04-01T02:31:46;99968.78;;;14.43;48.59
59493;BME280;45497;43.996;22.876;2023-04-01T02:34:12;99974.81;;;14.25;49.24
59493;BME280;45497;43.996;22.876;2023-04-01T02:36:38;99976.19;;;14.41;49.05
59493;BME280;45497;43.996;22.876;2023-04-01T02:39:05;99963.78;;;14.53;48.33
59493;BME280;45497;43.996;22.876;2023-04-01T02:41:31;99962.16;;;14.59;48.33
59493;BME280;45497;43.996;22.876;2023-04-01T02:43:56;99964.59;;;14.60;48.15
59493;BME280;45497;43.996;22.876;2023-04-01T02:46:24;99970.16;;;14.59;48.18
59493;BME280;45497;43.996;22.876;2023-04-01T02:48:49;99967.50;;;14.52;48.33
59493;BME280;45497;43.996;22.876;2023-04-01T02:51:15;99966.13;;;14.43;48.52
59493;BME280;45497;43.996;22.876;2023-04-01T02:53:40;99963.25;;;14.44;48.29
59493;BME280;45497;43.996;22.876;2023-04-01T02:56:06;99962.63;;;14.42;48.64
59493;BME280;45497;43.996;22.876;2023-04-01T02:58:31;99964.53;;;14.35;48.86
59493;BME280;45497;43.996;22.876;2023-04-01T03:00:57;99948.06;;;14.38;48.30
59493;BME280;45497;43.996;22.876;2023-04-01T03:03:22;99944.19;;;14.41;48.31
59493;BME280;45497;43.996;22.876;2023-04-01T03:05:48;99943.53;;;14.45;47.78
59493;BME280;45497;43.996;22.876;2023-04-01T03:08:13;99947.38;;;14.49;47.88
59493;BME280;45497;43.996;22.876;2023-04-01T03:10:39;99945.31;;;14.58;47.74
59493;BME280;45497;43.996;22.876;2023-04-01T03:13:04;99949.00;;;14.57;47.71
59493;BME280;45497;43.996;22.876;2023-04-01T03:15:31;99936.97;;;14.48;47.89
59493;BME280;45497;43.996;22.876;2023-04-01T03:17:56;99946.75;;;14.61;47.39
59493;BME280;45497;43.996;22.876;2023-04-01T03:20:22;99923.56;;;14.61;47.20
59493;BME280;45497;43.996;22.876;2023-04-01T03:22:47;99931.97;;;14.58;47.39
59493;BME280;45497;43.996;22.876;2023-04-01T03:25:13;99930.16;;;14.52;47.37
59493;BME280;45497;43.996;22.876;2023-04-01T03:27:39;99929.97;;;14.47;47.81
59493;BME280;45497;43.996;22.876;2023-04-01T03:30:05;99930.66;;;14.36;47.90
59493;BME280;45497;43.996;22.876;2023-04-01T03:32:31;99924.59;;;14.22;47.99
59493;BME280;45497;43.996;22.876;2023-04-01T03:34:57;99925.25;;;14.17;48.46
59493;BME280;45497;43.996;22.876;2023-04-01T03:37:23;99926.94;;;14.05;49.26
59493;BME280;45497;43.996;22.876;2023-04-01T03:39:49;99928.63;;;13.92;50.00
59493;BME280;45497;43.996;22.876;2023-04-01T03:42:15;99930.88;;;13.89;50.07
59493;BME280;45497;43.996;22.876;2023-04-01T03:44:40;99925.78;;;13.87;50.03
59493;BME280;45497;43.996;22.876;2023-04-01T03:47:06;99923.09;;;13.94;49.71
59493;BME280;45497;43.996;22.876;2023-04-01T03:49:32;99919.34;;;14.02;49.92
59493;BME280;45497;43.996;22.876;2023-04-01T03:51:58;99922.03;;;14.02;49.80
59493;BME280;45497;43.996;22.876;2023-04-01T03:54:24;99919.66;;;14.19;48.97
59493;BME280;45497;43.996;22.876;2023-04-01T03:56:49;99918.81;;;14.31;48.60
59493;BME280;45497;43.996;22.876;2023-04-01T03:59:15;99923.25;;;14.44;48.32
59493;BME280;45497;43.996;22.876;2023-04-01T04:01:40;99914.38;;;14.50;48.04
59493;BME280;45497;43.996;22.876;2023-04-01T04:04:06;99911.06;;;14.55;48.14
59493;BME280;45497;43.996;22.876;2023-04-01T04:06:32;99902.00;;;14.56;48.03
59493;BME280;45497;43.996;22.876;2023-04-01T04:08:58;99899.75;;;14.60;47.90
59493;BME280;45497;43.996;22.876;2023-04-01T04:11:23;99901.00;;;14.57;48.12
59493;BME280;45497;43.996;22.876;2023-04-01T04:13:49;99908.53;;;14.67;48.21
59493;BME280;45497;43.996;22.876;2023-04-01T04:16:16;99902.38;;;14.66;47.77
59493;BME280;45497;43.996;22.876;2023-04-01T04:18:42;99907.44;;;14.75;47.85
59493;BME280;45497;43.996;22.876;2023-04-01T04:21:12;99899.00;;;14.78;47.55
59493;BME280;45497;43.996;22.876;2023-04-01T04:23:38;99897.66;;;14.68;48.17
59493;BME280;45497;43.996;22.876;2023-04-01T04:26:06;99906.75;;;14.54;48.68
59493;BME280;45497;43.996;22.876;2023-04-01T04:28:31;99902.16;;;14.36;49.37
59493;BME280;45497;43.996;22.876;2023-04-01T04:30:57;99910.88;;;14.18;50.14
59493;BME280;45497;43.996;22.876;2023-04-01T04:33:24;99908.84;;;14.13;50.22
59493;BME280;45497;43.996;22.876;2023-04-01T04:35:50;99913.75;;;14.17;50.24
59493;BME280;45497;43.996;22.876;2023-04-01T04:38:16;99906.31;;;14.25;50.15
59493;BME280;45497;43.996;22.876;2023-04-01T04:40:44;99888.25;;;14.27;50.02
59493;BME280;45497;43.996;22.876;2023-04-01T04:43:13;99893.78;;;14.26;49.82
59493;BME280;45497;43.996;22.876;2023-04-01T04:45:39;99875.81;;;14.14;50.00
59493;BME280;45497;43.996;22.876;2023-04-01T04:48:08;99874.88;;;14.34;49.60
59493;BME280;45497;43.996;22.876;2023-04-01T04:50:33;99868.22;;;14.50;49.68
59493;BME280;45497;43.996;22.876;2023-04-01T04:52:59;99879.97;;;14.42;49.59
59493;BME280;45497;43.996;22.876;2023-04-01T04:55:24;99875.28;;;14.38;48.93
59493;BME280;45497;43.996;22.876;2023-04-01T04:57:50;99868.69;;;14.40;48.40
59493;BME280;45497;43.996;22.876;2023-04-01T05:00:15;99865.91;;;14.60;48.15
59493;BME280;45497;43.996;22.876;2023-04-01T05:02:41;99857.59;;;14.75;47.92
59493;BME280;45497;43.996;22.876;2023-04-01T05:05:07;99856.66;;;14.88;47.71
59493;BME280;45497;43.996;22.876;2023-04-01T05:07:33;99852.13;;;14.88;48.04
59493;BME280;45497;43.996;22.876;2023-04-01T05:09:59;99862.59;;;14.90;48.33
59493;BME280;45497;43.996;22.876;2023-04-01T05:12:24;99861.19;;;14.87;48.44
59493;BME280;45497;43.996;22.876;2023-04-01T05:14:50;99854.38;;;14.91;48.43
59493;BME280;45497;43.996;22.876;2023-04-01T05:17:15;99853.00;;;15.07;47.83
59493;BME280;45497;43.996;22.876;2023-04-01T05:19:41;99860.69;;;15.16;48.89
59493;BME280;45497;43.996;22.876;2023-04-01T05:22:06;99874.25;;;15.14;50.63
59493;BME280;45497;43.996;22.876;2023-04-01T05:24:32;99870.91;;;15.00;51.13
59493;BME280;45497;43.996;22.876;2023-04-01T05:26:58;99872.63;;;14.95;51.92
59493;BME280;45497;43.996;22.876;2023-04-01T05:29:25;99876.25;;;14.75;53.09
59493;BME280;45497;43.996;22.876;2023-04-01T05:31:50;99870.44;;;14.53;53.77
59493;BME280;45497;43.996;22.876;2023-04-01T05:34:16;99853.94;;;14.38;54.21
59493;BME280;45497;43.996;22.876;2023-04-01T05:36:42;99854.25;;;14.23;55.15
59493;BME280;45497;43.996;22.876;2023-04-01T05:39:08;99850.38;;;14.19;55.29
59493;BME280;45497;43.996;22.876;2023-04-01T05:41:37;99858.81;;;14.15;55.31
59493;BME280;45497;43.996;22.876;2023-04-01T05:44:03;99862.50;;;14.14;54.83
59493;BME280;45497;43.996;22.876;2023-04-01T05:46:28;99858.81;;;14.15;54.87
59493;BME280;45497;43.996;22.876;2023-04-01T05:48:54;99868.88;;;14.13;55.01
59493;BME280;45497;43.996;22.876;2023-04-01T05:51:20;99870.88;;;14.18;55.15
59493;BME280;45497;43.996;22.876;2023-04-01T05:53:46;99877.59;;;14.27;55.05
59493;BME280;45497;43.996;22.876;2023-04-01T05:56:12;99886.38;;;14.34;54.52
59493;BME280;45497;43.996;22.876;2023-04-01T05:58:38;99886.25;;;14.23;54.70
59493;BME280;45497;43.996;22.876;2023-04-01T06:01:07;99892.97;;;14.32;55.26
59493;BME280;45497;43.996;22.876;2023-04-01T06:03:33;99895.41;;;14.33;55.36
59493;BME280;45497;43.996;22.876;2023-04-01T06:05:59;99907.50;;;14.29;55.82
59493;BME280;45497;43.996;22.876;2023-04-01T06:08:27;99912.22;;;14.34;55.97
59493;BME280;45497;43.996;22.876;2023-04-01T06:16:55;99917.19;;;14.24;56.51
59493;BME280;45497;43.996;22.876;2023-04-01T06:44:23;99991.72;;;13.99;58.42
59493;BME280;45497;43.996;22.876;2023-04-01T06:46:58;100004.81;;;14.13;58.26
59493;BME280;45497;43.996;22.876;2023-04-01T06:54:56;100002.81;;;13.95;58.40
59493;BME280;45497;43.996;22.876;2023-04-01T06:57:42;100012.22;;;13.91;58.64
59493;BME280;45497;43.996;22.876;2023-04-01T07:00:46;100011.88;;;13.81;58.76
59493;BME280;45497;43.996;22.876;2023-04-01T07:03:19;100016.56;;;13.86;59.23
59493;BME280;45497;43.996;22.876;2023-04-01T07:05:45;100027.44;;;13.77;59.98
59493;BME280;45497;43.996;22.876;2023-04-01T07:08:23;100033.38;;;13.80;59.87
59493;BME280;45497;43.996;22.876;2023-04-01T07:10:53;100026.81;;;13.82;59.23
59493;BME280;45497;43.996;22.876;2023-04-01T07:13:39;100023.78;;;13.65;59.87
59493;BME280;45497;43.996;22.876;2023-04-01T07:16:17;100027.03;;;13.54;60.18
59493;BME280;45497;43.996;22.876;2023-04-01T07:18:50;100030.75;;;13.53;59.83
59493;BME280;45497;43.996;22.876;2023-04-01T07:21:41;100025.81;;;13.50;60.05
59493;BME280;45497;43.996;22.876;2023-04-01T07:24:34;100024.81;;;13.51;60.49
59493;BME280;45497;43.996;22.876;2023-04-01T07:27:01;100008.41;;;13.54;59.92
59493;BME280;45497;43.996;22.876;2023-04-01T07:29:27;100003.06;;;13.61;59.80
59493;BME280;45497;43.996;22.876;2023-04-01T07:35:36;99983.38;;;13.75;60.34
59493;BME280;45497;43.996;22.876;2023-04-01T07:40:45;99939.56;;;13.57;61.08
59493;BME280;45497;43.996;22.876;2023-04-01T07:46:21;99910.72;;;13.48;62.14
59493;BME280;45497;43.996;22.876;2023-04-01T07:56:42;99867.44;;;13.72;62.81
59493;BME280;45497;43.996;22.876;2023-04-01T08:07:15;99859.25;;;14.06;62.38
59493;BME280;45497;43.996;22.876;2023-04-01T08:09:56;99851.06;;;14.07;62.28
59493;BME280;45497;43.996;22.876;2023-04-01T08:15:00;99833.69;;;13.98;62.85
59493;BME280;45497;43.996;22.876;2023-04-01T08:22:45;99831.50;;;14.20;62.21
59493;BME280;45497;43.996;22.876;2023-04-01T08:25:24;99823.28;;;14.22;62.54
59493;BME280;45497;43.996;22.876;2023-04-01T08:27:55;99835.28;;;14.38;61.96
59493;BME280;45497;43.996;22.876;2023-04-01T08:30:45;99832.66;;;14.56;62.02
59493;BME280;45497;43.996;22.876;2023-04-01T08:33:25;99833.00;;;14.73;61.71
59493;BME280;45497;43.996;22.876;2023-04-01T08:55:51;99818.56;;;14.49;61.66
59493;BME280;45497;43.996;22.876;2023-04-01T09:01:46;99838.81;;;14.63;61.14
59493;BME280;45497;43.996;22.876;2023-04-01T09:09:40;99819.56;;;14.80;60.91
59493;BME280;45497;43.996;22.876;2023-04-01T09:12:32;99819.34;;;14.81;61.12
59493;BME280;45497;43.996;22.876;2023-04-01T09:37:21;99830.03;;;15.00;61.34
59493;BME280;45497;43.996;22.876;2023-04-01T09:40:03;99831.91;;;14.99;61.18
59493;BME280;45497;43.996;22.876;2023-04-01T10:10:38;99788.53;;;15.41;61.87
59493;BME280;45497;43.996;22.876;2023-04-01T10:59:35;99730.56;;;16.02;59.55
59493;BME280;45497;43.996;22.876;2023-04-01T11:20:03;99703.50;;;16.46;56.74
59493;BME280;45497;43.996;22.876;2023-04-01T11:23:01;99704.19;;;16.53;56.97
59493;BME280;45497;43.996;22.876;2023-04-01T11:26:02;99691.38;;;16.67;56.21
59493;BME280;45497;43.996;22.876;2023-04-01T11:37:12;99660.59;;;16.52;54.95
59493;BME280;45497;43.996;22.876;2023-04-01T11:48:38;99632.84;;;16.82;52.49
59493;BME280;45497;43.996;22.876;2023-04-01T11:54:42;99638.31;;;16.75;51.26
59493;BME280;45497;43.996;22.876;2023-04-01T12:00:02;99640.38;;;16.97;50.97
59493;BME280;45497;43.996;22.876;2023-04-01T12:02:44;99627.66;;;17.04;50.96
59493;BME280;45497;43.996;22.876;2023-04-01T12:13:40;99604.44;;;17.22;49.89
59493;BME280;45497;43.996;22.876;2023-04-01T12:19:25;99587.38;;;17.28;49.62
59493;BME280;45497;43.996;22.876;2023-04-01T12:30:17;99589.41;;;17.37;48.31
59493;BME280;45497;43.996;22.876;2023-04-01T12:32:47;99591.47;;;17.47;48.14
59493;BME280;45497;43.996;22.876;2023-04-01T12:41:09;99581.97;;;17.56;47.96
59493;BME280;45497;43.996;22.876;2023-04-01T12:49:16;99579.28;;;17.56;48.01
59493;BME280;45497;43.996;22.876;2023-04-01T13:05:29;99581.50;;;17.93;47.15
59493;BME280;45497;43.996;22.876;2023-04-01T13:23:00;99585.16;;;18.48;46.02
59493;BME280;45497;43.996;22.876;2023-04-01T13:25:50;99580.72;;;18.59;45.37
59493;BME280;45497;43.996;22.876;2023-04-01T13:28:25;99582.13;;;18.67;45.68
59493;BME280;45497;43.996;22.876;2023-04-01T13:36:18;99570.88;;;18.92;45.17
59493;BME280;45497;43.996;22.876;2023-04-01T13:39:08;99583.16;;;18.83;44.42
59493;BME280;45497;43.996;22.876;2023-04-01T14:06:06;99613.53;;;16.16;50.31
59493;BME280;45497;43.996;22.876;2023-04-01T14:17:39;99660.66;;;15.02;57.31
59493;BME280;45497;43.996;22.876;2023-04-01T14:20:26;99645.78;;;15.25;57.09
59493;BME280;45497;43.996;22.876;2023-04-01T14:23:08;99642.44;;;15.29;57.33
59493;BME280;45497;43.996;22.876;2023-04-01T14:34:34;99648.13;;;15.03;59.01
59493;BME280;45497;43.996;22.876;2023-04-01T14:48:17;99733.75;;;14.83;61.50
59493;BME280;45497;43.996;22.876;2023-04-01T14:50:52;99725.91;;;14.69;61.87
59493;BME280;45497;43.996;22.876;2023-04-01T14:55:52;99722.13;;;14.59;62.41
59493;BME280;45497;43.996;22.876;2023-04-01T14:58:22;99725.66;;;14.71;61.73
59493;BME280;45497;43.996;22.876;2023-04-01T15:03:39;99715.19;;;14.26;63.43
59493;BME280;45497;43.996;22.876;2023-04-01T15:06:35;99702.59;;;14.14;63.53
59493;BME280;45497;43.996;22.876;2023-04-01T15:12:50;99690.78;;;14.04;64.01
59493;BME280;45497;43.996;22.876;2023-04-01T15:15:35;99687.75;;;14.00;63.61
59493;BME280;45497;43.996;22.876;2023-04-01T15:18:35;99694.72;;;14.01;63.57
59493;BME280;45497;43.996;22.876;2023-04-01T15:26:56;99722.38;;;14.25;62.66
59493;BME280;45497;43.996;22.876;2023-04-01T15:35:30;99732.28;;;14.43;62.06
59493;BME280;45497;43.996;22.876;2023-04-01T15:44:03;99724.47;;;14.67;61.93
59493;BME280;45497;43.996;22.876;2023-04-01T15:54:45;99732.97;;;14.57;62.40
59493;BME280;45497;43.996;22.876;2023-04-01T15:57:25;99738.25;;;14.64;62.29
59493;BME280;45497;43.996;22.876;2023-04-01T16:02:53;99734.94;;;14.68;61.70
59493;BME280;45497;43.996;22.876;2023-04-01T16:08:24;99741.22;;;14.74;61.35
59493;BME280;45497;43.996;22.876;2023-04-01T16:25:36;99798.38;;;13.19;61.07
59493;BME280;45497;43.996;22.876;2023-04-01T16:28:28;99812.28;;;13.34;60.44
59493;BME280;45497;43.996;22.876;2023-04-01T16:33:51;99818.03;;;13.11;59.55
59493;BME280;45497;43.996;22.876;2023-04-01T16:36:22;99827.44;;;13.20;58.40
59493;BME280;45497;43.996;22.876;2023-04-01T16:41:34;99832.81;;;13.07;57.55
59493;BME280;45497;43.996;22.876;2023-04-01T16:44:23;99849.56;;;13.08;56.53
59493;BME280;45497;43.996;22.876;2023-04-01T16:46:56;99849.97;;;13.11;56.87
59493;BME280;45497;43.996;22.876;2023-04-01T16:49:37;99855.66;;;13.22;56.87
59493;BME280;45497;43.996;22.876;2023-04-01T16:57:46;99872.94;;;12.79;56.75
59493;BME280;45497;43.996;22.876;2023-04-01T17:00:24;99873.31;;;12.69;56.58
59493;BME280;45497;43.996;22.876;2023-04-01T17:03:20;99887.25;;;12.65;56.61
59493;BME280;45497;43.996;22.876;2023-04-01T17:08:41;99882.53;;;12.67;56.44
59493;BME280;45497;43.996;22.876;2023-04-01T17:14:21;99895.03;;;12.66;56.00
59493;BME280;45497;43.996;22.876;2023-04-01T17:39:26;99939.50;;;12.17;56.35
59493;BME280;45497;43.996;22.876;2023-04-01T17:42:11;99935.66;;;12.27;56.00
59493;BME280;45497;43.996;22.876;2023-04-01T17:45:01;99940.44;;;11.96;56.31
59493;BME280;45497;43.996;22.876;2023-04-01T17:47:49;99946.75;;;11.95;56.60
59493;BME280;45497;43.996;22.876;2023-04-01T17:50:21;99957.41;;;12.02;56.36
59493;BME280;45497;43.996;22.876;2023-04-01T17:58:20;99960.47;;;11.64;57.16
59493;BME280;45497;43.996;22.876;2023-04-01T18:06:29;99988.13;;;11.76;57.19
59493;BME280;45497;43.996;22.876;2023-04-01T18:09:06;99984.59;;;11.69;57.27
59493;BME280;45497;43.996;22.876;2023-04-01T18:12:07;99980.34;;;11.75;57.48
59493;BME280;45497;43.996;22.876;2023-04-01T18:14:49;99988.94;;;11.77;57.32
59493;BME280;45497;43.996;22.876;2023-04-01T18:22:59;99992.31;;;11.64;57.82
59493;BME280;45497;43.996;22.876;2023-04-01T18:25:37;99999.91;;;11.67;57.75
59493;BME280;45497;43.996;22.876;2023-04-01T18:30:32;100006.03;;;11.67;57.67
59493;BME280;45497;43.996;22.876;2023-04-01T18:33:06;100013.66;;;11.49;57.87
59493;BME280;45497;43.996;22.876;2023-04-01T18:38:31;100022.69;;;11.55;58.24
59493;BME280;45497;43.996;22.876;2023-04-01T18:43:34;100022.13;;;11.38;58.60
59493;BME280;45497;43.996;22.876;2023-04-01T18:46:24;100028.38;;;11.52;58.54
59493;BME280;45497;43.996;22.876;2023-04-01T18:51:46;100031.53;;;11.62;58.23
59493;BME280;45497;43.996;22.876;2023-04-01T18:56:44;100033.56;;;11.60;57.89
59493;BME280;45497;43.996;22.876;2023-04-01T19:05:24;100044.13;;;11.81;57.14
59493;BME280;45497;43.996;22.876;2023-04-01T19:34:59;100094.00;;;11.64;56.32
59493;BME280;45497;43.996;22.876;2023-04-01T19:43:00;100092.56;;;11.62;56.71
59493;BME280;45497;43.996;22.876;2023-04-01T19:48:13;100118.22;;;11.76;56.61
59493;BME280;45497;43.996;22.876;2023-04-01T19:58:26;100126.56;;;11.73;57.14
59493;BME280;45497;43.996;22.876;2023-04-01T20:01:00;100125.06;;;11.64;57.00
59493;BME280;45497;43.996;22.876;2023-04-01T20:08:50;100125.59;;;11.81;57.02
59493;BME280;45497;43.996;22.876;2023-04-01T20:14:43;100128.47;;;11.79;57.07
59493;BME280;45497;43.996;22.876;2023-04-01T20:17:41;100141.50;;;11.74;57.25
59493;BME280;45497;43.996;22.876;2023-04-01T20:25:15;100132.38;;;11.83;56.92
59493;BME280;45497;43.996;22.876;2023-04-01T20:27:47;100131.34;;;11.84;57.05
59493;BME280;45497;43.996;22.876;2023-04-01T20:44:19;100135.22;;;11.82;58.01
59493;BME280;45497;43.996;22.876;2023-04-01T20:49:39;100144.00;;;11.82;58.49
59493;BME280;45497;43.996;22.876;2023-04-01T20:55:01;100136.44;;;11.79;58.46
59493;BME280;45497;43.996;22.876;2023-04-01T21:00:36;100136.38;;;11.94;58.14
59493;BME280;45497;43.996;22.876;2023-04-01T21:17:27;100142.31;;;11.96;58.31
59493;BME280;45497;43.996;22.876;2023-04-01T21:20:22;100133.72;;;12.01;58.29
59493;BME280;45497;43.996;22.876;2023-04-01T21:31:02;100143.38;;;12.02;58.23
59493;BME280;45497;43.996;22.876;2023-04-01T21:42:36;100150.31;;;12.03;57.59
59493;BME280;45497;43.996;22.876;2023-04-01T21:51:02;100149.06;;;11.99;57.45
59493;BME280;45497;43.996;22.876;2023-04-01T21:56:56;100147.84;;;12.01;57.03
59493;BME280;45497;43.996;22.876;2023-04-01T22:02:45;100137.56;;;11.92;56.99
59493;BME280;45497;43.996;22.876;2023-04-01T22:05:39;100137.56;;;11.92;57.10
59493;BME280;45497;43.996;22.876;2023-04-01T22:09:16;100139.13;;;11.86;57.06
59493;BME280;45497;43.996;22.876;2023-04-01T22:14:17;100139.47;;;11.98;56.48
59493;BME280;45497;43.996;22.876;2023-04-01T22:16:50;100151.91;;;11.97;56.67
59493;BME280;45497;43.996;22.876;2023-04-01T22:19:47;100139.03;;;11.94;56.50
59493;BME280;45497;43.996;22.876;2023-04-01T22:25:14;100165.50;;;11.88;56.77
59493;BME280;45497;43.996;22.876;2023-04-01T22:27:49;100159.19;;;11.89;56.57
59493;BME280;45497;43.996;22.876;2023-04-01T22:30:27;100151.28;;;11.95;56.58
59493;BME280;45497;43.996;22.876;2023-04-01T22:33:07;100148.44;;;11.97;56.27
59493;BME280;45497;43.996;22.876;2023-04-01T22:47:22;100163.13;;;11.93;55.86
59493;BME280;45497;43.996;22.876;2023-04-01T22:49:53;100162.22;;;11.85;55.75
59493;BME280;45497;43.996;22.876;2023-04-01T22:52:38;100160.38;;;11.86;55.73
59493;BME280;45497;43.996;22.876;2023-04-01T22:58:13;100165.31;;;11.89;55.55
59493;BME280;45497;43.996;22.876;2023-04-01T23:00:49;100163.81;;;11.80;55.79
59493;BME280;45497;43.996;22.876;2023-04-01T23:03:34;100167.59;;;11.71;55.78
59493;BME280;45497;43.996;22.876;2023-04-01T23:06:05;100156.53;;;11.67;55.80
59493;BME280;45497;43.996;22.876;2023-04-01T23:08:48;100166.56;;;11.72;55.78
59493;BME280;45497;43.996;22.876;2023-04-01T23:13:49;100161.88;;;11.74;55.67
59493;BME280;45497;43.996;22.876;2023-04-01T23:16:22;100172.03;;;11.85;55.43
59493;BME280;45497;43.996;22.876;2023-04-01T23:19:17;100168.03;;;11.74;55.46
59493;BME280;45497;43.996;22.876;2023-04-01T23:21:59;100165.31;;;11.67;55.71
59493;BME280;45497;43.996;22.876;2023-04-01T23:24:34;100163.38;;;11.76;55.42
59493;BME280;45497;43.996;22.876;2023-04-01T23:27:11;100168.66;;;11.76;55.39
59493;BME280;45497;43.996;22.876;2023-04-01T23:29:39;100164.25;;;11.83;55.13
59493;BME280;45497;43.996;22.876;2023-04-01T23:32:16;100163.63;;;11.81;55.12
59493;BME280;45497;43.996;22.876;2023-04-01T23:34:48;100157.88;;;11.78;55.15
59493;BME280;45497;43.996;22.876;2023-04-01T23:37:15;100162.59;;;11.82;54.90
59493;BME280;45497;43.996;22.876;2023-04-01T23:39:45;100156.41;;;11.75;54.73
59493;BME280;45497;43.996;22.876;2023-04-01T23:42:20;100159.03;;;11.75;54.94
59493;BME280;45497;43.996;22.876;2023-04-01T23:45:17;100156.84;;;11.79;54.77
59493;BME280;45497;43.996;22.876;2023-04-01T23:47:47;100155.88;;;11.86;54.72
59493;BME280;45497;43.996;22.876;2023-04-01T23:50:21;100156.28;;;11.83;54.64
59493;BME280;45497;43.996;22.876;2023-04-01T23:53:03;100159.03;;;11.75;54.69
59493;BME280;45497;43.996;22.876;2023-04-01T23:55:32;100157.63;;;11.73;54.74
59493;BME280;45497;43.996;22.876;2023-04-01T23:58:22;100159.63;;;11.71;54.73
